Tropical Cyclones
[Index]
Main Index Home Page Stock Weather Photos Extreme Storms Discussion Storm News and Storm Chasing Reports Tropical Cyclones / Hurricanes / Typhoons Weather Data and Links Wild Fires / Bushfires Weather Observation Techniques Weather Picture Catalogue Tornado Pictures and Reports Stock Video Footage and DVDs for sale
Season 1962-1963 Tropical Cyclone 196312 Track Map
Season 1962-1963 Summaries: [BoM-AU] [JTWC-AU] [JTWC-SIO] [JTWC-SPAC] [JTWC-SH]
<<- Previous TC | JTWC 1962-1963 Season | Next TC ->>

click for intensity scale information  Lat/long Grid: Show Hide

 Date Labels: Show Hide

Joint Typhoon Warning Centre Cyclone Data

Name: 196312
Number: 459 / 6312

01 Jan 1963 06:00 UTC to 11 Jan 1963 00:00 UTC

    date/time    lat    long     hPa   cat  kts
1963-01-01 06   10.1    80.1                              
1963-01-01 12   10.4    80.4                              
1963-01-01 18   10.7    80.6                              
1963-01-02 00   11.0    80.9                              
1963-01-02 06   11.2    81.1                              
1963-01-02 12   11.5    81.3                              
1963-01-02 18   11.7    81.5                              
1963-01-03 00   12.0    81.7                              
1963-01-03 06   12.2    82.0                              
1963-01-03 12   12.4    82.4                              
1963-01-03 18   12.3    82.8                              
1963-01-04 00   11.9    83.0                              
1963-01-04 06   11.9    82.7                              
1963-01-04 12   12.1    82.3                              
1963-01-04 18   12.3    82.1                              
1963-01-05 00   12.6    81.9                              
1963-01-05 06   13.0    81.3                              
1963-01-05 12   13.3    80.6                              
1963-01-05 18   13.6    79.8                              
1963-01-06 00   13.9    79.0                              
1963-01-06 06   14.1    78.3                              
1963-01-06 12   14.3    77.5                              
1963-01-06 18   14.5    76.7                              
1963-01-07 00   14.9    75.9                              
1963-01-07 06   15.1    75.2                              
1963-01-07 12   15.4    74.4                              
1963-01-07 18   15.6    73.7                              
1963-01-08 00   15.9    73.0                              
1963-01-08 06   16.2    72.2                              
1963-01-08 12   16.6    71.4                              
1963-01-08 18   17.0    70.7                              
1963-01-09 00   17.6    70.1                              
1963-01-09 06   19.8    69.5                              
1963-01-09 12   23.2    69.1                              
1963-01-09 18   25.6    69.3                              
1963-01-10 00   27.8    69.8                              
1963-01-10 06   29.7    70.3                              
1963-01-10 12   31.7    70.9                              
1963-01-10 18   33.7    71.7                              
1963-01-11 00   35.7    72.7                              
Winds are 1-min average.

Tropical cyclone tracks developed by Michael Bath using data from the Joint Typhoon Warning Centre Best Tracks and Google Maps.


[Australian Severe Weather index] [Copyright Notice] [Email Contacts] [Search This Site] [Privacy Policy]
Document: tropical_cyclone_196312.htm Updated: 18 September 2016